createdAt,value
2023-01-17T00:02:20.890Z,96690.06
2023-01-17T00:05:06.462Z,96690.84
2023-01-17T00:07:51.891Z,96676.50
2023-01-17T00:10:23.940Z,96693.56
2023-01-17T00:12:59.735Z,96690.53
2023-01-17T00:15:27.696Z,96696.81
2023-01-17T00:17:54.422Z,96693.38
2023-01-17T00:20:42.870Z,96696.13
2023-01-17T00:23:33.015Z,96698.91
2023-01-17T00:26:05.406Z,96702.81
2023-01-17T00:28:34.101Z,96714.06
2023-01-17T00:31:01.310Z,96707.41
2023-01-17T00:33:28.228Z,96726.41
2023-01-17T00:35:56.973Z,96714.06
2023-01-17T00:38:25.799Z,96723.41
2023-01-17T00:40:52.918Z,96726.84
2023-01-17T00:43:40.840Z,96723.75
2023-01-17T00:46:27.251Z,96717.13
2023-01-17T00:49:12.471Z,96735.75
2023-01-17T00:51:57.763Z,96751.34
2023-01-17T00:54:42.985Z,96752.81
2023-01-17T00:57:28.068Z,96738.88
2023-01-17T01:00:13.155Z,96746.78
2023-01-17T01:02:58.434Z,96753.41
2023-01-17T01:05:43.667Z,96757.22
2023-01-17T01:08:54.954Z,96775.69
2023-01-17T01:11:40.062Z,96770.94
2023-01-17T01:14:28.999Z,96772.47
2023-01-17T01:17:14.357Z,96779.81
2023-01-17T01:19:59.312Z,96784.91
2023-01-17T01:22:44.506Z,96772.97
2023-01-17T01:25:29.729Z,96761.41
2023-01-17T01:28:43.998Z,96756.47
2023-01-17T01:31:29.103Z,96774.50
2023-01-17T01:33:55.637Z,96776.94
2023-01-17T01:36:22.341Z,96773.13
2023-01-17T01:38:50.301Z,96783.63
2023-01-17T01:41:16.950Z,96775.44
2023-01-17T01:43:50.444Z,96769.31
2023-01-17T01:46:32.319Z,96768.47
2023-01-17T01:49:02.676Z,96766.78
2023-01-17T01:51:40.521Z,96762.03
2023-01-17T01:54:22.000Z,96761.94
2023-01-17T01:56:50.901Z,96764.31
2023-01-17T01:59:21.159Z,96771.28
2023-01-17T02:01:50.026Z,96778.00
2023-01-17T02:04:17.983Z,96781.81
2023-01-17T02:06:50.302Z,96781.97
2023-01-17T02:09:18.498Z,96774.78
2023-01-17T02:11:46.951Z,96765.31
2023-01-17T02:14:18.288Z,96773.06
2023-01-17T02:16:55.158Z,96776.13
2023-01-17T02:19:35.396Z,96778.56
2023-01-17T02:22:39.353Z,96778.59
2023-01-17T02:25:05.846Z,96781.47
2023-01-17T02:27:57.586Z,96779.25
2023-01-17T02:30:43.606Z,96783.03
2023-01-17T02:33:33.180Z,96793.69
2023-01-17T02:36:30.324Z,96798.31
2023-01-17T02:39:03.704Z,96805.72
2023-01-17T02:41:40.730Z,96800.19
2023-01-17T02:44:15.406Z,96800.38
2023-01-17T02:46:52.023Z,96812.22
2023-01-17T02:49:21.768Z,96805.78
2023-01-17T02:52:07.238Z,96802.53
2023-01-17T02:54:52.267Z,96802.81
2023-01-17T02:57:33.405Z,96795.78
2023-01-17T03:00:06.502Z,96807.13
2023-01-17T03:02:49.852Z,96818.13
2023-01-17T03:05:32.705Z,96813.72
2023-01-17T03:08:01.335Z,96806.25
2023-01-17T03:10:30.188Z,96820.97
2023-01-17T03:12:58.377Z,96824.22
2023-01-17T03:15:25.174Z,96830.34
2023-01-17T03:17:55.510Z,96833.69
2023-01-17T03:20:22.746Z,96834.47
2023-01-17T03:22:49.475Z,96845.72
2023-01-17T03:25:16.680Z,96838.63
2023-01-17T03:27:43.270Z,96837.75
2023-01-17T03:30:10.388Z,96834.25
2023-01-17T03:32:36.924Z,96838.16
2023-01-17T03:35:03.677Z,96841.66
2023-01-17T03:37:30.197Z,96837.75
2023-01-17T03:39:56.711Z,96833.44
2023-01-17T03:42:23.234Z,96831.16
2023-01-17T03:44:49.741Z,96826.25
2023-01-17T03:47:16.232Z,96817.66
2023-01-17T03:49:42.795Z,96818.03
2023-01-17T03:52:09.350Z,96828.09
2023-01-17T03:54:35.904Z,96827.66
2023-01-17T03:57:02.427Z,96825.00
2023-01-17T03:59:28.955Z,96825.81
2023-01-17T04:01:55.613Z,96842.09
2023-01-17T04:04:22.478Z,96833.94
2023-01-17T04:06:49.041Z,96833.22
2023-01-17T04:09:15.568Z,96828.16
2023-01-17T04:11:42.107Z,96830.91
2023-01-17T04:14:08.658Z,96829.34
2023-01-17T04:16:37.532Z,96825.13
2023-01-17T04:19:04.075Z,96817.72
2023-01-17T04:21:30.727Z,96832.47
2023-01-17T04:23:57.231Z,96838.00
2023-01-17T04:26:23.763Z,96842.31
2023-01-17T04:28:50.287Z,96837.34
2023-01-17T04:31:17.529Z,96840.50
2023-01-17T04:33:44.217Z,96848.59
2023-01-17T04:36:10.859Z,96842.84
2023-01-17T04:38:37.495Z,96848.28
2023-01-17T04:41:04.185Z,96855.19
2023-01-17T04:43:30.908Z,96849.31
2023-01-17T04:45:58.248Z,96860.91
2023-01-17T04:48:25.378Z,96859.75
2023-01-17T04:50:51.928Z,96859.03
2023-01-17T04:53:18.437Z,96856.66
2023-01-17T04:55:46.583Z,96862.88
2023-01-17T04:58:13.079Z,96869.66
2023-01-17T05:00:39.580Z,96873.31
2023-01-17T05:03:07.081Z,96867.69
2023-01-17T05:05:33.641Z,96867.19
2023-01-17T05:08:00.291Z,96869.22
2023-01-17T05:10:27.139Z,96860.75
2023-01-17T05:12:57.702Z,96862.19
2023-01-17T05:15:25.193Z,96864.47
2023-01-17T05:17:53.785Z,96869.09
2023-01-17T05:20:22.325Z,96877.53
2023-01-17T05:22:56.837Z,96877.88
2023-01-17T05:25:32.076Z,96877.31
2023-01-17T05:28:02.182Z,96881.50
2023-01-17T05:30:31.238Z,96874.00
2023-01-17T05:32:58.798Z,96877.91
2023-01-17T05:35:28.609Z,96879.88
2023-01-17T05:37:55.852Z,96888.72
2023-01-17T05:40:28.408Z,96886.50
2023-01-17T05:42:56.910Z,96887.75
2023-01-17T05:45:26.167Z,96898.97
2023-01-17T05:47:54.270Z,96905.22
2023-01-17T05:50:24.005Z,96899.84
2023-01-17T05:52:56.649Z,96914.63
2023-01-17T05:55:24.425Z,96922.38
2023-01-17T05:57:51.684Z,96927.00
2023-01-17T06:00:19.001Z,96936.59
2023-01-17T06:02:46.822Z,96939.00
2023-01-17T06:05:14.485Z,96937.41
2023-01-17T06:07:45.258Z,96947.13
2023-01-17T06:10:16.554Z,96942.47
2023-01-17T06:12:44.757Z,96942.38
2023-01-17T06:15:15.947Z,96946.38
2023-01-17T06:17:42.689Z,96951.19
2023-01-17T06:20:11.096Z,96949.56
2023-01-17T06:22:37.650Z,96957.03
2023-01-17T06:25:04.468Z,96956.63
2023-01-17T06:27:30.990Z,96962.81
2023-01-17T06:29:57.618Z,96959.66
2023-01-17T06:32:24.178Z,96965.06
2023-01-17T06:34:50.778Z,96970.59
2023-01-17T06:37:17.342Z,96966.88
2023-01-17T06:39:43.938Z,96976.41
2023-01-17T06:42:10.451Z,96981.13
2023-01-17T06:44:37.016Z,96986.69
2023-01-17T06:47:03.635Z,96989.94
2023-01-17T06:49:30.186Z,96997.22
2023-01-17T06:51:56.726Z,97002.66
2023-01-17T06:54:23.279Z,97007.25
2023-01-17T06:56:49.785Z,97006.09
2023-01-17T06:59:16.342Z,97012.38
2023-01-17T07:01:42.893Z,97017.13
2023-01-17T07:04:09.568Z,97018.25
2023-01-17T07:06:37.194Z,97028.81
2023-01-17T07:09:04.446Z,97020.72
2023-01-17T07:11:31.308Z,97023.53
2023-01-17T07:13:57.908Z,97037.44
2023-01-17T07:16:24.504Z,97031.31
2023-01-17T07:18:51.848Z,97047.00
2023-01-17T07:21:18.658Z,97048.94
2023-01-17T07:23:45.284Z,97058.50
2023-01-17T07:26:11.836Z,97062.38
2023-01-17T07:28:38.378Z,97057.84
2023-01-17T07:31:08.263Z,97047.09
2023-01-17T07:33:35.593Z,97050.00
2023-01-17T07:36:07.452Z,97048.41
2023-01-17T07:38:34.635Z,97056.66
2023-01-17T07:41:01.380Z,97056.81
2023-01-17T07:43:27.999Z,97062.13
2023-01-17T07:45:54.873Z,97054.34
2023-01-17T07:48:23.746Z,97052.06
2023-01-17T07:50:57.951Z,97060.28
2023-01-17T07:53:26.555Z,97063.16
2023-01-17T07:55:53.826Z,97064.91
2023-01-17T07:58:20.945Z,97058.91
2023-01-17T08:00:47.608Z,97062.91
2023-01-17T08:03:16.577Z,97060.38
2023-01-17T08:05:52.843Z,97075.06
2023-01-17T08:08:19.667Z,97061.88
2023-01-17T08:10:46.181Z,97083.75
2023-01-17T08:13:12.745Z,97078.75
2023-01-17T08:15:39.238Z,97071.38
2023-01-17T08:18:05.805Z,97073.72
2023-01-17T08:20:32.426Z,97075.66
2023-01-17T08:22:59.014Z,97075.69
2023-01-17T08:25:26.301Z,97065.22
2023-01-17T08:27:57.571Z,97070.72
2023-01-17T08:30:25.013Z,97062.56
2023-01-17T08:32:51.653Z,97063.75
2023-01-17T08:35:20.100Z,97064.53
2023-01-17T08:37:47.877Z,97059.06
2023-01-17T08:40:17.594Z,97070.03
2023-01-17T08:42:44.302Z,97070.84
2023-01-17T08:45:12.959Z,97084.13
2023-01-17T08:47:39.510Z,97097.41
2023-01-17T08:50:06.960Z,97107.53
2023-01-17T08:52:34.037Z,97108.66
2023-01-17T08:55:00.761Z,97125.47
2023-01-17T08:57:27.493Z,97120.75
2023-01-17T08:59:54.023Z,97125.28
2023-01-17T09:02:21.220Z,97129.81
2023-01-17T09:04:49.407Z,97127.28
2023-01-17T09:07:20.475Z,97141.25
2023-01-17T09:09:48.025Z,97140.16
2023-01-17T09:12:14.539Z,97153.06
2023-01-17T09:14:41.123Z,97145.38
2023-01-17T09:17:07.712Z,97146.22
2023-01-17T09:19:35.492Z,97150.97
2023-01-17T09:22:04.271Z,97150.25
2023-01-17T09:24:32.738Z,97157.00
2023-01-17T09:26:59.991Z,97153.44
2023-01-17T09:29:26.628Z,97160.84
2023-01-17T09:31:53.458Z,97153.84
2023-01-17T09:34:20.010Z,97153.50
2023-01-17T09:36:46.689Z,97157.00
2023-01-17T09:39:15.328Z,97154.72
2023-01-17T09:42:17.411Z,97167.69
2023-01-17T09:44:48.029Z,97164.97
2023-01-17T09:47:37.466Z,97153.66
2023-01-17T09:50:18.967Z,97145.06
2023-01-17T09:52:45.545Z,97148.19
2023-01-17T09:55:17.000Z,97140.00
2023-01-17T09:57:59.081Z,97135.69
2023-01-17T10:00:34.527Z,97111.84
2023-01-17T10:03:01.061Z,97105.22
2023-01-17T10:05:56.295Z,97105.22
2023-01-17T10:08:50.579Z,97093.47
2023-01-17T10:11:33.528Z,97091.13
2023-01-17T10:14:25.946Z,97090.72
2023-01-17T10:17:08.795Z,97090.34
2023-01-17T10:19:50.728Z,97089.19
2023-01-17T10:22:49.364Z,97088.03
2023-01-17T10:25:42.934Z,97087.22
2023-01-17T10:28:17.320Z,97073.53
2023-01-17T10:30:58.089Z,97066.75
2023-01-17T10:33:31.363Z,97046.19
2023-01-17T10:36:06.073Z,97043.03
2023-01-17T10:38:37.898Z,97036.94
2023-01-17T10:41:22.966Z,97025.31
2023-01-17T10:44:06.200Z,97027.25
2023-01-17T10:46:36.561Z,97008.25
2023-01-17T10:49:03.799Z,97005.81
2023-01-17T10:51:43.081Z,97007.44
2023-01-17T10:54:21.720Z,97008.25
2023-01-17T10:56:48.540Z,96995.53
2023-01-17T10:59:31.247Z,97000.28
2023-01-17T11:02:07.385Z,97007.25
2023-01-17T11:04:37.322Z,96997.28
2023-01-17T11:07:23.470Z,97004.66
2023-01-17T11:09:53.310Z,96999.81
2023-01-17T11:12:44.883Z,97003.50
2023-01-17T11:15:11.447Z,96997.91
2023-01-17T11:17:53.180Z,97004.72
2023-01-17T11:20:39.917Z,96993.88
2023-01-17T11:23:22.489Z,96997.13
2023-01-17T11:25:50.595Z,96994.69
2023-01-17T11:28:26.363Z,96995.75
2023-01-17T11:30:55.661Z,96992.84
2023-01-17T11:33:45.398Z,96983.88
2023-01-17T11:36:30.186Z,96980.16
2023-01-17T11:39:06.622Z,96982.75
2023-01-17T11:41:35.970Z,96976.13
2023-01-17T11:44:04.281Z,96971.69
2023-01-17T11:46:31.718Z,96983.34
2023-01-17T11:49:01.029Z,96983.84
2023-01-17T11:51:35.245Z,96978.78
2023-01-17T11:54:39.471Z,96977.00
2023-01-17T11:57:19.480Z,96972.22
2023-01-17T11:59:47.688Z,96968.56
2023-01-17T12:02:39.843Z,96965.81
2023-01-17T12:05:21.738Z,96965.16
2023-01-17T12:08:07.076Z,96961.03
2023-01-17T12:10:33.748Z,96958.78
2023-01-17T12:13:43.520Z,96960.59
2023-01-17T12:16:35.575Z,96951.72
2023-01-17T12:19:18.504Z,96939.28
2023-01-17T12:22:05.466Z,96943.09
2023-01-17T12:25:08.837Z,96931.25
2023-01-17T12:28:11.277Z,96926.78
2023-01-17T12:30:37.749Z,96924.88
2023-01-17T12:33:52.691Z,96920.31
2023-01-17T12:36:43.896Z,96915.03
2023-01-17T12:39:14.213Z,96911.91
2023-01-17T12:41:53.495Z,96900.13
2023-01-17T12:44:28.100Z,96887.66
2023-01-17T12:47:02.817Z,96893.94
2023-01-17T12:49:48.727Z,96887.75
2023-01-17T12:52:35.312Z,96881.63
2023-01-17T12:55:17.638Z,96876.97
2023-01-17T12:57:56.759Z,96899.38
2023-01-17T13:00:26.766Z,96906.91
2023-01-17T13:03:01.592Z,96914.00
2023-01-17T13:05:41.719Z,96929.66
2023-01-17T13:08:21.285Z,96918.41
2023-01-17T13:10:55.723Z,96922.00
2023-01-17T13:13:25.619Z,96926.34
2023-01-17T13:15:57.253Z,96915.03
2023-01-17T13:18:29.656Z,96910.41
2023-01-17T13:21:26.746Z,96911.25
2023-01-17T13:23:59.196Z,96914.47
2023-01-17T13:26:56.150Z,96905.19
2023-01-17T13:29:41.865Z,96918.53
2023-01-17T13:32:45.930Z,96913.44
2023-01-17T13:35:37.155Z,96914.59
2023-01-17T13:38:12.361Z,96908.72
2023-01-17T13:40:53.627Z,96900.13
2023-01-17T13:43:25.887Z,96895.50
2023-01-17T13:45:54.966Z,96904.09
2023-01-17T13:48:21.438Z,96900.94
2023-01-17T13:51:02.706Z,96897.44
2023-01-17T13:53:39.439Z,96885.34
2023-01-17T13:56:28.620Z,96879.50
2023-01-17T13:58:59.249Z,96871.31
2023-01-17T14:01:25.826Z,96880.31
2023-01-17T14:03:52.323Z,96867.81
2023-01-17T14:06:46.406Z,96848.66
2023-01-17T14:09:12.867Z,96838.16
2023-01-17T14:12:05.973Z,96823.72
2023-01-17T14:14:44.527Z,96814.75
2023-01-17T14:17:20.544Z,96806.97
2023-01-17T14:19:50.042Z,96796.84
2023-01-17T14:22:22.955Z,96802.38
2023-01-17T14:25:15.057Z,96799.63
2023-01-17T14:27:58.259Z,96784.06
2023-01-17T14:30:28.422Z,96793.00
2023-01-17T14:33:01.335Z,96796.91
2023-01-17T14:35:58.918Z,96805.13
2023-01-17T14:38:31.634Z,96791.47
2023-01-17T14:41:04.790Z,96786.78
2023-01-17T14:43:34.776Z,96776.63
2023-01-17T14:46:07.515Z,96766.47
2023-01-17T14:48:34.450Z,96764.53
2023-01-17T14:51:01.865Z,96761.84
2023-01-17T14:53:31.429Z,96761.09
2023-01-17T14:56:01.511Z,96767.31
2023-01-17T14:58:30.827Z,96768.50
2023-01-17T15:01:03.548Z,96768.16
2023-01-17T15:03:35.237Z,96750.22
2023-01-17T15:06:17.028Z,96749.03
2023-01-17T15:08:43.989Z,96735.44
2023-01-17T15:11:18.652Z,96731.53
2023-01-17T15:13:49.819Z,96731.53
2023-01-17T15:16:24.547Z,96729.19
2023-01-17T15:18:52.973Z,96730.75
2023-01-17T15:21:22.748Z,96721.41
2023-01-17T15:23:54.270Z,96730.75
2023-01-17T15:26:24.226Z,96729.59
2023-01-17T15:28:52.952Z,96730.78
2023-01-17T15:31:40.683Z,96735.41
2023-01-17T15:34:09.385Z,96738.53
2023-01-17T15:36:35.993Z,96733.47
2023-01-17T15:39:06.550Z,96738.56
2023-01-17T15:41:39.655Z,96728.44
2023-01-17T15:44:08.224Z,96726.84
2023-01-17T15:46:44.427Z,96731.53
2023-01-17T15:49:18.597Z,96722.97
2023-01-17T15:51:56.001Z,96720.63
2023-01-17T15:54:40.615Z,96724.91
2023-01-17T15:57:18.070Z,96723.34
2023-01-17T16:00:07.037Z,96724.16
2023-01-17T16:02:51.922Z,96733.88
2023-01-17T16:05:33.936Z,96736.22
2023-01-17T16:08:04.278Z,96736.63
2023-01-17T16:10:36.409Z,96738.94
2023-01-17T16:13:04.887Z,96744.75
2023-01-17T16:15:31.528Z,96742.44
2023-01-17T16:18:01.140Z,96743.22
2023-01-17T16:20:33.533Z,96745.16
2023-01-17T16:23:00.590Z,96740.84
2023-01-17T16:25:32.449Z,96741.25
2023-01-17T16:27:59.885Z,96743.19
2023-01-17T16:30:27.353Z,96750.97
2023-01-17T16:32:54.069Z,96747.06
2023-01-17T16:35:29.290Z,96740.47
2023-01-17T16:37:59.008Z,96742.44
2023-01-17T16:40:28.112Z,96731.13
2023-01-17T16:42:58.860Z,96733.88
2023-01-17T16:45:25.720Z,96727.63
2023-01-17T16:47:54.081Z,96731.94
2023-01-17T16:50:23.580Z,96731.53
2023-01-17T16:52:54.598Z,96742.41
2023-01-17T16:55:25.204Z,96726.06
2023-01-17T16:57:56.126Z,96742.03
2023-01-17T17:00:23.125Z,96734.66
2023-01-17T17:02:53.767Z,96736.22
2023-01-17T17:05:20.382Z,96728.41
2023-01-17T17:07:50.763Z,96744.00
2023-01-17T17:10:19.885Z,96754.50
2023-01-17T17:12:46.729Z,96751.41
2023-01-17T17:15:13.958Z,96752.56
2023-01-17T17:17:42.103Z,96752.56
2023-01-17T17:20:14.178Z,96751.81
2023-01-17T17:22:44.037Z,96752.56
2023-01-17T17:25:15.952Z,96749.06
2023-01-17T17:27:43.282Z,96745.56
2023-01-17T17:30:10.843Z,96737.38
2023-01-17T17:32:37.484Z,96743.22
2023-01-17T17:35:04.671Z,96740.13
2023-01-17T17:37:31.274Z,96744.00
2023-01-17T17:39:57.890Z,96742.44
2023-01-17T17:42:24.670Z,96730.38
2023-01-17T17:44:51.360Z,96719.06
2023-01-17T17:47:17.952Z,96736.19
2023-01-17T17:49:44.579Z,96731.13
2023-01-17T17:52:11.139Z,96729.56
2023-01-17T17:54:37.728Z,96718.28
2023-01-17T17:57:04.676Z,96715.19
2023-01-17T17:59:31.256Z,96711.28
2023-01-17T18:01:59.678Z,96706.63
2023-01-17T18:04:27.144Z,96705.84
2023-01-17T18:06:58.054Z,96698.81
2023-01-17T18:09:24.679Z,96685.97
2023-01-17T18:11:51.281Z,96681.69
2023-01-17T18:14:20.992Z,96679.38
2023-01-17T18:16:47.997Z,96677.81
2023-01-17T18:19:20.114Z,96677.03
2023-01-17T18:21:46.695Z,96676.63
2023-01-17T18:24:15.080Z,96687.13
2023-01-17T18:26:47.858Z,96683.63
2023-01-17T18:29:15.876Z,96685.19
2023-01-17T18:31:44.309Z,96671.94
2023-01-17T18:34:14.016Z,96664.94
2023-01-17T18:36:41.202Z,96658.31
2023-01-17T18:39:22.784Z,96656.78
2023-01-17T18:41:49.609Z,96659.91
2023-01-17T18:44:16.381Z,96650.16
2023-01-17T18:46:43.292Z,96647.81
2023-01-17T18:49:11.628Z,96651.72
2023-01-17T18:51:38.456Z,96640.44
2023-01-17T18:54:06.923Z,96627.97
2023-01-17T18:56:34.608Z,96622.91
2023-01-17T18:59:01.967Z,96620.56
2023-01-17T19:01:32.097Z,96625.63
2023-01-17T19:04:02.268Z,96637.31
2023-01-17T19:06:35.082Z,96627.97
2023-01-17T19:09:02.798Z,96629.13
2023-01-17T19:11:29.931Z,96631.84
2023-01-17T19:13:56.980Z,96630.28
2023-01-17T19:16:28.866Z,96625.25
2023-01-17T19:18:58.060Z,96624.84
2023-01-17T19:21:27.923Z,96614.34
2023-01-17T19:23:55.917Z,96608.88
2023-01-17T19:26:25.027Z,96598.38
2023-01-17T19:28:52.042Z,96600.72
2023-01-17T19:31:21.288Z,96605.38
2023-01-17T19:33:49.960Z,96607.72
2023-01-17T19:36:19.788Z,96611.22
2023-01-17T19:39:02.912Z,96608.91
2023-01-17T19:41:30.714Z,96603.84
2023-01-17T19:43:59.434Z,96598.75
2023-01-17T19:46:27.442Z,96594.88
2023-01-17T19:48:55.719Z,96599.56
2023-01-17T19:51:24.174Z,96598.38
2023-01-17T19:53:51.202Z,96596.44
2023-01-17T19:56:20.390Z,96605.38
2023-01-17T19:58:47.733Z,96596.06
2023-01-17T20:01:20.404Z,96600.31
2023-01-17T20:03:48.683Z,96596.84
2023-01-17T20:06:17.623Z,96584.38
2023-01-17T20:08:45.139Z,96588.28
2023-01-17T20:11:14.887Z,96589.81
2023-01-17T20:13:42.310Z,96589.84
2023-01-17T20:16:11.557Z,96589.84
2023-01-17T20:18:38.726Z,96588.28
2023-01-17T20:21:12.217Z,96583.59
2023-01-17T20:23:42.292Z,96580.88
2023-01-17T20:26:10.327Z,96579.69
2023-01-17T20:28:39.557Z,96575.03
2023-01-17T20:31:07.296Z,96572.31
2023-01-17T20:33:35.158Z,96557.53
2023-01-17T20:36:10.561Z,96552.84
2023-01-17T20:38:45.290Z,96553.28
2023-01-17T20:41:16.462Z,96556.75
2023-01-17T20:43:44.164Z,96563.75
2023-01-17T20:46:11.584Z,96563.34
2023-01-17T20:48:44.122Z,96568.81
2023-01-17T20:51:11.715Z,96568.03
2023-01-17T20:53:39.834Z,96558.66
2023-01-17T20:56:08.734Z,96562.19
2023-01-17T20:58:35.778Z,96558.31
2023-01-17T21:01:02.553Z,96561.78
2023-01-17T21:03:29.370Z,96559.81
2023-01-17T21:06:13.787Z,96559.03
2023-01-17T21:08:43.198Z,96559.44
2023-01-17T21:11:12.378Z,96559.06
2023-01-17T21:13:40.151Z,96558.66
2023-01-17T21:16:09.314Z,96549.34
2023-01-17T21:18:36.334Z,96541.56
2023-01-17T21:21:12.790Z,96538.06
2023-01-17T21:23:40.948Z,96538.44
2023-01-17T21:26:10.641Z,96539.97
2023-01-17T21:28:39.777Z,96536.13
2023-01-17T21:31:23.004Z,96532.22
2023-01-17T21:33:52.508Z,96527.94
2023-01-17T21:36:20.721Z,96518.63
2023-01-17T21:38:52.247Z,96530.69
2023-01-17T21:41:24.392Z,96524.44
2023-01-17T21:43:58.392Z,96525.22
2023-01-17T21:46:26.598Z,96518.25
2023-01-17T21:48:53.487Z,96520.53
2023-01-17T21:51:21.718Z,96521.34
2023-01-17T21:53:48.324Z,96524.06
2023-01-17T21:56:53.574Z,96525.25
2023-01-17T21:59:20.100Z,96523.28
2023-01-17T22:01:46.681Z,96519.00
2023-01-17T22:04:13.308Z,96525.22
2023-01-17T22:06:39.889Z,96530.25
2023-01-17T22:09:07.244Z,96525.59
2023-01-17T22:11:36.657Z,96527.16
2023-01-17T22:14:07.422Z,96522.88
2023-01-17T22:16:33.956Z,96510.47
2023-01-17T22:19:00.568Z,96519.00
2023-01-17T22:21:28.606Z,96516.28
2023-01-17T22:23:57.970Z,96517.44
2023-01-17T22:26:30.519Z,96522.50
2023-01-17T22:29:00.665Z,96516.66
2023-01-17T22:31:28.180Z,96513.91
2023-01-17T22:34:01.007Z,96511.16
2023-01-17T22:36:28.670Z,96509.63
2023-01-17T22:38:55.694Z,96518.94
2023-01-17T22:41:25.525Z,96523.97
2023-01-17T22:43:56.449Z,96534.81
2023-01-17T22:46:26.864Z,96542.19
2023-01-17T22:48:55.209Z,96535.59
2023-01-17T22:51:23.503Z,96533.66
2023-01-17T22:53:52.259Z,96528.59
2023-01-17T22:56:28.220Z,96525.09
2023-01-17T22:58:55.223Z,96518.44
2023-01-17T23:01:22.760Z,96520.41
2023-01-17T23:03:55.362Z,96521.97
2023-01-17T23:06:25.578Z,96516.91
2023-01-17T23:08:54.133Z,96528.16
2023-01-17T23:11:39.744Z,96525.81
2023-01-17T23:14:12.872Z,96524.31
2023-01-17T23:17:07.097Z,96517.34
2023-01-17T23:19:36.975Z,96518.53
2023-01-17T23:22:16.236Z,96513.84
2023-01-17T23:24:45.543Z,96508.00
2023-01-17T23:27:32.495Z,96511.09
2023-01-17T23:29:59.031Z,96522.72
2023-01-17T23:32:26.295Z,96511.09
2023-01-17T23:34:52.960Z,96504.06
2023-01-17T23:37:19.571Z,96498.66
2023-01-17T23:39:46.159Z,96493.22
2023-01-17T23:42:31.480Z,96490.09
2023-01-17T23:44:58.069Z,96490.13
2023-01-17T23:47:24.753Z,96485.41
2023-01-17T23:49:51.318Z,96467.19
2023-01-17T23:52:17.855Z,96459.03
2023-01-17T23:54:44.464Z,96450.06
2023-01-17T23:57:11.037Z,96438.78
2023-01-17T23:59:37.592Z,96434.16
